High Jupiter — VREK3 — position and weather

sailwx.info

Track history (hours):
 
Tides and Currents Weather Stations Pressure Air Temp Water Temp Dewpoint Dewpoint Depression Visibility Wind Speed Wind Dir Waves Ship Positions

High Jupiter

Last reported at 2018-Feb-19 02:00 UTC. Time now 2018-Feb-19 02:04 UTC.
Position N 30°11' W 093°19'.

Length 183 m; draft 8.2 m.

Type: Tanker. MMSI: 477141500.

Date/timePositionNaut miles runAvg speedWind from/ knotsBaromVisibWave heightAir tempDewpointWater temp
2018-Feb-19 02:00N 30°11' W 093°19'0 0.0
2018-Feb-19 01:30N 30°11' W 093°19'0 0.0
2018-Feb-19 01:00N 30°11' W 093°19'0 0.0
2018-Feb-19 00:30N 30°11' W 093°19'0 0.0
2018-Feb-19 00:00N 30°11' W 093°19'0 0.0
2018-Feb-18 23:30N 30°11' W 093°19'0 0.0
2018-Feb-18 23:00N 30°11' W 093°19'0 0.0
2018-Feb-18 22:30N 30°11' W 093°19'0 0.0
2018-Feb-18 22:00N 30°11' W 093°19'0 0.0
2018-Feb-18 21:30N 30°11' W 093°19'0 0.0
2018-Feb-18 21:00N 30°11' W 093°19'0 0.0
2018-Feb-18 20:30N 30°11' W 093°19'0 0.0
2018-Feb-18 20:00N 30°11' W 093°19'0 0.0
2018-Feb-18 19:30N 30°11' W 093°19'0 0.0
2018-Feb-18 19:00N 30°11' W 093°19'0 0.0
2018-Feb-18 18:30N 30°11' W 093°19'0 0.0
2018-Feb-18 18:00N 30°11' W 093°19'0 0.0
2018-Feb-18 17:30N 30°11' W 093°19'0 0.0
2018-Feb-18 17:00N 30°11' W 093°19'0 0.0
2018-Feb-18 16:30N 30°11' W 093°19'0 0.0
2018-Feb-18 16:00N 30°11' W 093°19'0 0.0
2018-Feb-18 15:30N 30°11' W 093°19'0 0.0
2018-Feb-18 15:00N 30°11' W 093°19'0 0.0
2018-Feb-18 14:30N 30°11' W 093°19'0 0.0
2018-Feb-18 14:00N 30°11' W 093°19'0 0.0
2018-Feb-18 13:30N 30°11' W 093°19'0 0.0
2018-Feb-18 13:00N 30°11' W 093°19'0 0.0
2018-Feb-18 12:30N 30°11' W 093°19'0 0.0
2018-Feb-18 12:00N 30°11' W 093°19'0 0.0
2018-Feb-18 11:30N 30°11' W 093°19'0 0.0
2018-Feb-18 11:00N 30°11' W 093°19'0 0.0
2018-Feb-18 10:30N 30°11' W 093°19'0 0.0
2018-Feb-18 10:00N 30°11' W 093°19'0 0.0
2018-Feb-18 09:30N 30°11' W 093°19'0 0.0
2018-Feb-18 09:00N 30°11' W 093°19'0 0.0
2018-Feb-18 08:30N 30°11' W 093°19'0 0.0
2018-Feb-18 08:00N 30°11' W 093°19'0 0.0
2018-Feb-18 07:30N 30°11' W 093°19'0 0.0
2018-Feb-18 07:00N 30°11' W 093°19'0 0.0
2018-Feb-18 06:30N 30°11' W 093°19'0 0.0
2018-Feb-18 06:00N 30°11' W 093°19'0 0.0
2018-Feb-18 05:30N 30°11' W 093°19'0 0.0
2018-Feb-18 05:00N 30°11' W 093°19'0 0.0
2018-Feb-18 04:27N 30°11' W 093°19'0 0.0
2018-Feb-18 04:00N 30°11' W 093°19'0 0.0
2018-Feb-18 03:30N 30°11' W 093°19'0 0.0
2018-Feb-18 03:00N 30°11' W 093°19'0 0.0
2018-Feb-18 02:30N 30°11' W 093°19'0 0.0
2018-Feb-18 02:00N 30°11' W 093°19'0 0.0
2018-Feb-18 01:30N 30°11' W 093°19'0 0.0
2018-Feb-18 01:00N 30°11' W 093°19'0 0.0
2018-Feb-18 00:30N 30°11' W 093°19'0 0.0
2018-Feb-18 00:00N 30°11' W 093°19'0 0.0
2018-Feb-17 23:30N 30°11' W 093°19'0 0.0
2018-Feb-17 23:00N 30°11' W 093°19'0 0.0
2018-Feb-17 22:30N 30°11' W 093°19'0 0.0
2018-Feb-17 22:00N 30°11' W 093°19'0 0.5
2018-Feb-17 21:30N 30°11' W 093°19'2 4.4
2018-Feb-17 21:00N 30°09' W 093°20'3 5.8
2018-Feb-17 20:30N 30°06' W 093°20'3 6.9
2018-Feb-17 20:00N 30°03' W 093°20'3 6.1
2018-Feb-17 19:31N 29°60' W 093°20'4 7.4
2018-Feb-17 19:00N 29°56' W 093°20'4 8.3
2018-Feb-17 18:30N 29°52' W 093°21'4 7.8
2018-Feb-17 18:00N 29°48' W 093°21'3 6.9
2018-Feb-17 17:30N 29°44' W 093°20'4 8.9
2018-Feb-17 17:00N 29°40' W 093°20'4 6.9
2018-Feb-17 16:22N 29°36' W 093°17'1 0.1
2018-Feb-17 08:49N 29°37' W 093°16'0 0.0
2018-Feb-17 06:40N 29°37' W 093°16'0 0.0
2018-Feb-17 06:16N 29°37' W 093°16'0 0.0
2018-Feb-17 05:34N 29°37' W 093°16'0 0.0
2018-Feb-17 05:19N 29°37' W 093°16'0 0.0
2018-Feb-17 04:58N 29°37' W 093°16'0 0.0
2018-Feb-17 01:37N 29°37' W 093°16'0 0.0
2018-Feb-17 01:28N 29°37' W 093°16'0 0.0
2018-Feb-17 00:55N 29°37' W 093°16'0 0.0
2018-Feb-17 00:28N 29°37' W 093°16'0 0.0
2018-Feb-16 23:55N 29°37' W 093°16'0 0.0
2018-Feb-16 23:22N 29°37' W 093°16'0 0.0
2018-Feb-16 22:55N 29°37' W 093°16'0 0.0
2018-Feb-16 22:25N 29°37' W 093°16'0 0.0
2018-Feb-16 21:52N 29°37' W 093°16'0 0.0
2018-Feb-16 21:16N 29°37' W 093°16'0 0.0
2018-Feb-16 20:40N 29°37' W 093°16'0 0.1
2018-Feb-16 20:28N 29°37' W 093°16'0 0.0
2018-Feb-16 18:28N 29°37' W 093°16'0 0.0
2018-Feb-16 04:10N 29°37' W 093°16'0 0.0
2018-Feb-16 03:43N 29°37' W 093°16'0 0.0
2018-Feb-16 03:28N 29°37' W 093°16'0 0.0
2018-Feb-16 02:52N 29°37' W 093°16'0 0.0
2018-Feb-16 02:25N 29°37' W 093°16'0 0.0
2018-Feb-16 01:55N 29°37' W 093°16'0 0.0
2018-Feb-16 01:25N 29°37' W 093°16'0 0.0
2018-Feb-16 00:58N 29°37' W 093°16'0 0.0
2018-Feb-16 00:28N 29°37' W 093°16'0 0.0
2018-Feb-15 23:43N 29°37' W 093°16'0 0.0
2018-Feb-15 23:16N 29°37' W 093°16'0 0.0
2018-Feb-15 22:46N 29°37' W 093°16'0 0.0
2018-Feb-15 22:28N 29°37' W 093°16'0 0.0
2018-Feb-15 21:58N 29°37' W 093°16'0 0.0
2018-Feb-15 21:25N 29°37' W 093°16'0 0.0
2018-Feb-14 06:34N 29°37' W 093°16'0 0.0
2018-Feb-13 02:22N 29°37' W 093°16'  
2018-Feb-10 14:43N 29°37' W 093°16'0 0.4
2018-Feb-10 14:19N 29°37' W 093°16'14 7.8
2018-Feb-10 12:30N 29°23' W 093°13'9 6.8
2018-Feb-10 11:13N 29°14' W 093°13'4 8.2
2018-Feb-10 10:46N 29°11' W 093°13'  
Track history (hours):
 
Tides and Currents Weather Stations Pressure Air Temp Water Temp Dewpoint Dewpoint Depression Visibility Wind Speed Wind Dir Waves Ship Positions

High Jupiter

Last reported at 2018-Feb-19 02:00 UTC. Time now 2018-Feb-19 02:04 UTC.
Position N 30°11' W 093°19'.

Length 183 m; draft 8.2 m.

Type: Tanker. MMSI: 477141500.

Date/timePositionNaut miles runAvg speedWind from/ knotsBaromVisibWave heightAir tempDewpointWater temp
2018-Feb-19 02:00N 30°11' W 093°19'0 0.0
2018-Feb-19 01:30N 30°11' W 093°19'0 0.0
2018-Feb-19 01:00N 30°11' W 093°19'0 0.0
2018-Feb-19 00:30N 30°11' W 093°19'0 0.0
2018-Feb-19 00:00N 30°11' W 093°19'0 0.0
2018-Feb-18 23:30N 30°11' W 093°19'0 0.0
2018-Feb-18 23:00N 30°11' W 093°19'0 0.0
2018-Feb-18 22:30N 30°11' W 093°19'0 0.0
2018-Feb-18 22:00N 30°11' W 093°19'0 0.0
2018-Feb-18 21:30N 30°11' W 093°19'0 0.0
2018-Feb-18 21:00N 30°11' W 093°19'0 0.0
2018-Feb-18 20:30N 30°11' W 093°19'0 0.0
2018-Feb-18 20:00N 30°11' W 093°19'0 0.0
2018-Feb-18 19:30N 30°11' W 093°19'0 0.0
2018-Feb-18 19:00N 30°11' W 093°19'0 0.0
2018-Feb-18 18:30N 30°11' W 093°19'0 0.0
2018-Feb-18 18:00N 30°11' W 093°19'0 0.0
2018-Feb-18 17:30N 30°11' W 093°19'0 0.0
2018-Feb-18 17:00N 30°11' W 093°19'0 0.0
2018-Feb-18 16:30N 30°11' W 093°19'0 0.0
2018-Feb-18 16:00N 30°11' W 093°19'0 0.0
2018-Feb-18 15:30N 30°11' W 093°19'0 0.0
2018-Feb-18 15:00N 30°11' W 093°19'0 0.0
2018-Feb-18 14:30N 30°11' W 093°19'0 0.0
2018-Feb-18 14:00N 30°11' W 093°19'0 0.0
2018-Feb-18 13:30N 30°11' W 093°19'0 0.0
2018-Feb-18 13:00N 30°11' W 093°19'0 0.0
2018-Feb-18 12:30N 30°11' W 093°19'0 0.0
2018-Feb-18 12:00N 30°11' W 093°19'0 0.0
2018-Feb-18 11:30N 30°11' W 093°19'0 0.0
2018-Feb-18 11:00N 30°11' W 093°19'0 0.0
2018-Feb-18 10:30N 30°11' W 093°19'0 0.0
2018-Feb-18 10:00N 30°11' W 093°19'0 0.0
2018-Feb-18 09:30N 30°11' W 093°19'0 0.0
2018-Feb-18 09:00N 30°11' W 093°19'0 0.0
2018-Feb-18 08:30N 30°11' W 093°19'0 0.0
2018-Feb-18 08:00N 30°11' W 093°19'0 0.0
2018-Feb-18 07:30N 30°11' W 093°19'0 0.0
2018-Feb-18 07:00N 30°11' W 093°19'0 0.0
2018-Feb-18 06:30N 30°11' W 093°19'0 0.0
2018-Feb-18 06:00N 30°11' W 093°19'0 0.0
2018-Feb-18 05:30N 30°11' W 093°19'0 0.0
2018-Feb-18 05:00N 30°11' W 093°19'0 0.0
2018-Feb-18 04:27N 30°11' W 093°19'0 0.0
2018-Feb-18 04:00N 30°11' W 093°19'0 0.0
2018-Feb-18 03:30N 30°11' W 093°19'0 0.0
2018-Feb-18 03:00N 30°11' W 093°19'0 0.0
2018-Feb-18 02:30N 30°11' W 093°19'0 0.0
2018-Feb-18 02:00N 30°11' W 093°19'0 0.0
2018-Feb-18 01:30N 30°11' W 093°19'0 0.0
2018-Feb-18 01:00N 30°11' W 093°19'0 0.0
2018-Feb-18 00:30N 30°11' W 093°19'0 0.0
2018-Feb-18 00:00N 30°11' W 093°19'0 0.0
2018-Feb-17 23:30N 30°11' W 093°19'0 0.0
2018-Feb-17 23:00N 30°11' W 093°19'0 0.0
2018-Feb-17 22:30N 30°11' W 093°19'0 0.0
2018-Feb-17 22:00N 30°11' W 093°19'0 0.5
2018-Feb-17 21:30N 30°11' W 093°19'2 4.4
2018-Feb-17 21:00N 30°09' W 093°20'3 5.8
2018-Feb-17 20:30N 30°06' W 093°20'3 6.9
2018-Feb-17 20:00N 30°03' W 093°20'3 6.1
2018-Feb-17 19:31N 29°60' W 093°20'4 7.4
2018-Feb-17 19:00N 29°56' W 093°20'4 8.3
2018-Feb-17 18:30N 29°52' W 093°21'4 7.8
2018-Feb-17 18:00N 29°48' W 093°21'3 6.9
2018-Feb-17 17:30N 29°44' W 093°20'4 8.9
2018-Feb-17 17:00N 29°40' W 093°20'4 6.9
2018-Feb-17 16:22N 29°36' W 093°17'1 0.1
2018-Feb-17 08:49N 29°37' W 093°16'0 0.0
2018-Feb-17 06:40N 29°37' W 093°16'0 0.0
2018-Feb-17 06:16N 29°37' W 093°16'0 0.0
2018-Feb-17 05:34N 29°37' W 093°16'0 0.0
2018-Feb-17 05:19N 29°37' W 093°16'0 0.0
2018-Feb-17 04:58N 29°37' W 093°16'0 0.0
2018-Feb-17 01:37N 29°37' W 093°16'0 0.0
2018-Feb-17 01:28N 29°37' W 093°16'0 0.0
2018-Feb-17 00:55N 29°37' W 093°16'0 0.0
2018-Feb-17 00:28N 29°37' W 093°16'0 0.0
2018-Feb-16 23:55N 29°37' W 093°16'0 0.0
2018-Feb-16 23:22N 29°37' W 093°16'0 0.0
2018-Feb-16 22:55N 29°37' W 093°16'0 0.0
2018-Feb-16 22:25N 29°37' W 093°16'0 0.0
2018-Feb-16 21:52N 29°37' W 093°16'0 0.0
2018-Feb-16 21:16N 29°37' W 093°16'0 0.0
2018-Feb-16 20:40N 29°37' W 093°16'0 0.1
2018-Feb-16 20:28N 29°37' W 093°16'0 0.0
2018-Feb-16 18:28N 29°37' W 093°16'0 0.0
2018-Feb-16 04:10N 29°37' W 093°16'0 0.0
2018-Feb-16 03:43N 29°37' W 093°16'0 0.0
2018-Feb-16 03:28N 29°37' W 093°16'0 0.0
2018-Feb-16 02:52N 29°37' W 093°16'0 0.0
2018-Feb-16 02:25N 29°37' W 093°16'0 0.0
2018-Feb-16 01:55N 29°37' W 093°16'0 0.0
2018-Feb-16 01:25N 29°37' W 093°16'0 0.0
2018-Feb-16 00:58N 29°37' W 093°16'0 0.0
2018-Feb-16 00:28N 29°37' W 093°16'0 0.0
2018-Feb-15 23:43N 29°37' W 093°16'0 0.0
2018-Feb-15 23:16N 29°37' W 093°16'0 0.0
2018-Feb-15 22:46N 29°37' W 093°16'0 0.0
2018-Feb-15 22:28N 29°37' W 093°16'0 0.0
2018-Feb-15 21:58N 29°37' W 093°16'0 0.0
2018-Feb-15 21:25N 29°37' W 093°16'0 0.0
2018-Feb-14 06:34N 29°37' W 093°16'0 0.0
2018-Feb-13 02:22N 29°37' W 093°16'  
2018-Feb-10 14:43N 29°37' W 093°16'0 0.4
2018-Feb-10 14:19N 29°37' W 093°16'14 7.8
2018-Feb-10 12:30N 29°23' W 093°13'9 6.8
2018-Feb-10 11:13N 29°14' W 093°13'4 8.2
2018-Feb-10 10:46N 29°11' W 093°13'  

Dump ship's entire track history